sensor_id;sensor_type;location;lat;lon;timestamp;temperature;humidity
14154;DHT22;7157;53.144;7.570;2024-03-22T00:09:38;10.58;105.36
14154;DHT22;7157;53.144;7.570;2024-03-22T00:19:40;10.69;104.94
14154;DHT22;7157;53.144;7.570;2024-03-22T00:29:44;10.64;105.32
14154;DHT22;7157;53.144;7.570;2024-03-22T00:39:45;10.63;105.47
14154;DHT22;7157;53.144;7.570;2024-03-22T00:49:49;10.72;105.27
14154;DHT22;7157;53.144;7.570;2024-03-22T00:59:51;10.68;105.92
14154;DHT22;7157;53.144;7.570;2024-03-22T01:09:54;10.74;106.01
14154;DHT22;7157;53.144;7.570;2024-03-22T01:19:56;10.80;106.33
14154;DHT22;7157;53.144;7.570;2024-03-22T01:29:59;10.93;106.08
14154;DHT22;7157;53.144;7.570;2024-03-22T01:40:01;11.03;106.04
14154;DHT22;7157;53.144;7.570;2024-03-22T01:50:07;11.00;106.77
14154;DHT22;7157;53.144;7.570;2024-03-22T02:00:10;11.10;106.69
14154;DHT22;7157;53.144;7.570;2024-03-22T02:10:14;11.13;107.23
14154;DHT22;7157;53.144;7.570;2024-03-22T02:20:16;11.23;107.04
14154;DHT22;7157;53.144;7.570;2024-03-22T02:30:19;11.29;107.09
14154;DHT22;7157;53.144;7.570;2024-03-22T02:40:21;11.28;108.11
14154;DHT22;7157;53.144;7.570;2024-03-22T02:50:25;11.48;107.59
14154;DHT22;7157;53.144;7.570;2024-03-22T03:00:26;11.41;108.67
14154;DHT22;7157;53.144;7.570;2024-03-22T03:10:30;11.43;109.04
14154;DHT22;7157;53.144;7.570;2024-03-22T03:20:32;11.49;109.04
14154;DHT22;7157;53.144;7.570;2024-03-22T03:30:35;11.63;108.67
14154;DHT22;7157;53.144;7.570;2024-03-22T03:40:37;11.53;109.63
14154;DHT22;7157;53.144;7.570;2024-03-22T03:50:40;11.54;109.92
14154;DHT22;7157;53.144;7.570;2024-03-22T04:00:42;11.67;109.78
14154;DHT22;7157;53.144;7.570;2024-03-22T04:10:52;11.59;110.44
14154;DHT22;7157;53.144;7.570;2024-03-22T04:20:54;11.43;111.57
14154;DHT22;7157;53.144;7.570;2024-03-22T04:30:59;11.57;110.69
14154;DHT22;7157;53.144;7.570;2024-03-22T04:41:02;11.55;111.29
14154;DHT22;7157;53.144;7.570;2024-03-22T04:51:05;11.62;111.01
14154;DHT22;7157;53.144;7.570;2024-03-22T05:01:07;11.60;111.41
14154;DHT22;7157;53.144;7.570;2024-03-22T05:11:10;11.68;111.11
14154;DHT22;7157;53.144;7.570;2024-03-22T05:21:12;11.76;110.78
14154;DHT22;7157;53.144;7.570;2024-03-22T05:31:15;11.76;111.06
14154;DHT22;7157;53.144;7.570;2024-03-22T05:41:17;11.75;111.19
14154;DHT22;7157;53.144;7.570;2024-03-22T05:51:20;11.77;111.09
14154;DHT22;7157;53.144;7.570;2024-03-22T06:01:22;11.74;111.39
14154;DHT22;7157;53.144;7.570;2024-03-22T06:11:26;11.69;111.68
14154;DHT22;7157;53.144;7.570;2024-03-22T06:21:27;11.78;110.92
14154;DHT22;7157;53.144;7.570;2024-03-22T06:31:31;11.16;115.88
14154;DHT22;7157;53.144;7.570;2024-03-22T06:41:33;10.96;118.79
14154;DHT22;7157;53.144;7.570;2024-03-22T06:51:37;10.94;118.99
14154;DHT22;7157;53.144;7.570;2024-03-22T07:01:39;10.82;118.99
14154;DHT22;7157;53.144;7.570;2024-03-22T07:11:42;10.86;118.99
14154;DHT22;7157;53.144;7.570;2024-03-22T07:21:44;10.87;118.99
14154;DHT22;7157;53.144;7.570;2024-03-22T07:31:47;10.81;118.99
14154;DHT22;7157;53.144;7.570;2024-03-22T07:41:49;10.75;118.99
14154;DHT22;7157;53.144;7.570;2024-03-22T07:51:52;10.86;118.73
14154;DHT22;7157;53.144;7.570;2024-03-22T08:01:54;11.03;118.34
14154;DHT22;7157;53.144;7.570;2024-03-22T08:11:59;10.89;118.15
14154;DHT22;7157;53.144;7.570;2024-03-22T08:22:01;10.88;117.40
14154;DHT22;7157;53.144;7.570;2024-03-22T08:32:04;10.78;118.11
14154;DHT22;7157;53.144;7.570;2024-03-22T08:42:06;10.59;118.99
14154;DHT22;7157;53.144;7.570;2024-03-22T08:52:11;10.69;118.99
14154;DHT22;7157;53.144;7.570;2024-03-22T09:02:13;10.60;118.99
14154;DHT22;7157;53.144;7.570;2024-03-22T09:12:16;10.70;118.99
14154;DHT22;7157;53.144;7.570;2024-03-22T09:22:18;10.62;118.99
14154;DHT22;7157;53.144;7.570;2024-03-22T09:32:21;10.70;118.99
14154;DHT22;7157;53.144;7.570;2024-03-22T09:42:23;10.79;118.99
14154;DHT22;7157;53.144;7.570;2024-03-22T09:52:30;10.96;118.99
14154;DHT22;7157;53.144;7.570;2024-03-22T10:02:33;10.77;118.99
14154;DHT22;7157;53.144;7.570;2024-03-22T10:12:36;10.67;118.99
14154;DHT22;7157;53.144;7.570;2024-03-22T10:22:41;10.79;118.99
14154;DHT22;7157;53.144;7.570;2024-03-22T10:32:45;10.72;118.99
14154;DHT22;7157;53.144;7.570;2024-03-22T10:42:47;10.82;118.99
14154;DHT22;7157;53.144;7.570;2024-03-22T10:52:52;10.85;118.99
14154;DHT22;7157;53.144;7.570;2024-03-22T11:02:56;10.82;118.99
14154;DHT22;7157;53.144;7.570;2024-03-22T11:13:02;11.13;118.99
14154;DHT22;7157;53.144;7.570;2024-03-22T11:23:04;11.03;118.99
14154;DHT22;7157;53.144;7.570;2024-03-22T11:33:08;11.33;118.99
14154;DHT22;7157;53.144;7.570;2024-03-22T11:43:11;11.45;118.99
14154;DHT22;7157;53.144;7.570;2024-03-22T11:53:17;11.13;118.99
14154;DHT22;7157;53.144;7.570;2024-03-22T12:03:19;10.94;118.99
14154;DHT22;7157;53.144;7.570;2024-03-22T12:13:23;11.11;118.99
14154;DHT22;7157;53.144;7.570;2024-03-22T12:23:24;11.08;118.99
14154;DHT22;7157;53.144;7.570;2024-03-22T12:33:28;11.00;118.99
14154;DHT22;7157;53.144;7.570;2024-03-22T12:43:30;10.85;118.99
14154;DHT22;7157;53.144;7.570;2024-03-22T12:53:33;10.78;118.99
14154;DHT22;7157;53.144;7.570;2024-03-22T13:03:35;10.77;118.99
14154;DHT22;7157;53.144;7.570;2024-03-22T13:13:38;11.12;118.99
14154;DHT22;7157;53.144;7.570;2024-03-22T13:23:40;10.83;118.99
14154;DHT22;7157;53.144;7.570;2024-03-22T13:33:43;10.65;118.99
14154;DHT22;7157;53.144;7.570;2024-03-22T13:43:45;10.38;118.99
14154;DHT22;7157;53.144;7.570;2024-03-22T13:53:50;10.49;118.99
14154;DHT22;7157;53.144;7.570;2024-03-22T14:03:52;10.34;118.99
14154;DHT22;7157;53.144;7.570;2024-03-22T14:13:56;10.22;118.99
14154;DHT22;7157;53.144;7.570;2024-03-22T14:23:57;10.16;118.99
14154;DHT22;7157;53.144;7.570;2024-03-22T14:34:01;10.36;118.99
14154;DHT22;7157;53.144;7.570;2024-03-22T14:44:03;10.35;118.99
14154;DHT22;7157;53.144;7.570;2024-03-22T14:54:06;10.28;118.99
14154;DHT22;7157;53.144;7.570;2024-03-22T15:04:08;10.35;118.99
14154;DHT22;7157;53.144;7.570;2024-03-22T15:14:12;10.21;118.99
14154;DHT22;7157;53.144;7.570;2024-03-22T15:24:14;10.19;118.82
14154;DHT22;7157;53.144;7.570;2024-03-22T15:34:18;10.35;118.49
14154;DHT22;7157;53.144;7.570;2024-03-22T15:44:19;10.37;117.57
14154;DHT22;7157;53.144;7.570;2024-03-22T15:54:23;10.31;116.70
14154;DHT22;7157;53.144;7.570;2024-03-22T16:04:25;9.89;116.49
14154;DHT22;7157;53.144;7.570;2024-03-22T16:14:28;9.71;115.08
14154;DHT22;7157;53.144;7.570;2024-03-22T16:24:30;9.79;115.53
14154;DHT22;7157;53.144;7.570;2024-03-22T16:34:34;10.03;115.39
14154;DHT22;7157;53.144;7.570;2024-03-22T16:44:36;10.25;115.25
14154;DHT22;7157;53.144;7.570;2024-03-22T16:54:39;9.99;113.41
14154;DHT22;7157;53.144;7.570;2024-03-22T17:04:41;9.82;111.78
14154;DHT22;7157;53.144;7.570;2024-03-22T17:14:45;9.83;108.79
14154;DHT22;7157;53.144;7.570;2024-03-22T17:24:47;9.80;108.43
14154;DHT22;7157;53.144;7.570;2024-03-22T17:34:51;9.74;108.96
14154;DHT22;7157;53.144;7.570;2024-03-22T17:44:53;9.51;108.11
14154;DHT22;7157;53.144;7.570;2024-03-22T17:54:56;9.41;107.84
14154;DHT22;7157;53.144;7.570;2024-03-22T18:04:58;9.49;108.40
14154;DHT22;7157;53.144;7.570;2024-03-22T18:15:03;9.45;108.19
14154;DHT22;7157;53.144;7.570;2024-03-22T18:25:06;9.47;108.81
14154;DHT22;7157;53.144;7.570;2024-03-22T18:35:09;9.61;109.46
14154;DHT22;7157;53.144;7.570;2024-03-22T18:45:12;9.40;109.07
14154;DHT22;7157;53.144;7.570;2024-03-22T18:55:16;9.17;109.03
14154;DHT22;7157;53.144;7.570;2024-03-22T19:05:18;9.25;109.72
14154;DHT22;7157;53.144;7.570;2024-03-22T19:15:21;9.23;109.61
14154;DHT22;7157;53.144;7.570;2024-03-22T19:25:23;9.10;108.75
14154;DHT22;7157;53.144;7.570;2024-03-22T19:35:27;9.07;108.48
14154;DHT22;7157;53.144;7.570;2024-03-22T19:45:31;8.88;107.16
14154;DHT22;7157;53.144;7.570;2024-03-22T19:55:34;9.00;107.69
14154;DHT22;7157;53.144;7.570;2024-03-22T20:05:36;8.87;108.03
14154;DHT22;7157;53.144;7.570;2024-03-22T20:15:40;8.64;108.17
14154;DHT22;7157;53.144;7.570;2024-03-22T20:25:44;8.50;108.60
14154;DHT22;7157;53.144;7.570;2024-03-22T20:35:48;8.52;108.63
